createdAt,value
2022-12-03T00:02:01.236Z,95545.53
2022-12-03T00:05:04.587Z,95548.97
2022-12-03T00:08:06.386Z,95543.78
2022-12-03T00:11:08.040Z,95540.03
2022-12-03T00:14:09.717Z,95538.94
2022-12-03T00:17:11.358Z,95536.00
2022-12-03T00:20:18.788Z,95537.09
2022-12-03T00:23:20.422Z,95543.78
2022-12-03T00:26:22.006Z,95539.28
2022-12-03T00:29:23.660Z,95541.66
2022-12-03T00:32:25.309Z,95537.25
2022-12-03T00:35:28.302Z,95537.72
2022-12-03T00:38:29.961Z,95538.03
2022-12-03T00:41:31.587Z,95545.38
2022-12-03T00:44:33.295Z,95546.63
2022-12-03T00:47:34.978Z,95546.50
2022-12-03T00:50:38.030Z,95546.31
2022-12-03T00:53:39.775Z,95545.41
2022-12-03T00:56:41.458Z,95539.94
2022-12-03T00:59:43.135Z,95546.81
2022-12-03T01:02:44.867Z,95542.25
2022-12-03T01:05:47.890Z,95551.19
2022-12-03T01:08:49.599Z,95544.16
2022-12-03T01:11:51.272Z,95546.47
2022-12-03T01:14:53.288Z,95545.56
2022-12-03T01:17:55.128Z,95547.91
2022-12-03T01:20:58.170Z,95541.34
2022-12-03T01:23:59.953Z,95549.63
2022-12-03T01:27:01.604Z,95555.88
2022-12-03T01:30:04.092Z,95552.44
2022-12-03T01:33:05.993Z,95553.84
2022-12-03T01:36:09.479Z,95557.44
2022-12-03T01:39:11.153Z,95552.28
2022-12-03T01:42:15.496Z,95554.78
2022-12-03T01:45:21.196Z,95563.06
2022-12-03T01:48:22.858Z,95561.50
2022-12-03T01:51:25.949Z,95545.41
2022-12-03T01:54:31.177Z,95548.19
2022-12-03T01:57:35.710Z,95556.50
2022-12-03T02:00:37.443Z,95547.25
2022-12-03T02:03:39.218Z,95544.00
2022-12-03T02:06:43.448Z,95542.72
2022-12-03T02:09:45.495Z,95542.25
2022-12-03T02:12:49.436Z,95541.03
2022-12-03T02:15:51.149Z,95533.19
2022-12-03T02:18:52.805Z,95538.03
2022-12-03T02:22:01.046Z,95532.91
2022-12-03T02:25:10.215Z,95541.34
2022-12-03T02:28:11.912Z,95541.50
2022-12-03T02:31:13.657Z,95543.22
2022-12-03T02:34:30.222Z,95547.75
2022-12-03T02:37:34.293Z,95542.91
2022-12-03T02:40:37.759Z,95525.53
2022-12-03T02:43:39.504Z,95524.91
2022-12-03T02:46:41.416Z,95528.06
2022-12-03T02:49:43.117Z,95537.59
2022-12-03T02:52:46.197Z,95532.75
2022-12-03T02:55:50.379Z,95534.00
2022-12-03T02:58:53.860Z,95528.34
2022-12-03T03:01:55.712Z,95533.81
2022-12-03T03:04:57.999Z,95537.13
2022-12-03T03:08:00.416Z,95539.16
2022-12-03T03:11:03.648Z,95529.28
2022-12-03T03:14:05.252Z,95538.06
2022-12-03T03:17:06.977Z,95533.84
2022-12-03T03:20:10.109Z,95534.94
2022-12-03T03:23:14.119Z,95531.81
2022-12-03T03:26:17.445Z,95521.03
2022-12-03T03:29:19.318Z,95515.06
2022-12-03T03:32:21.031Z,95521.94
2022-12-03T03:35:23.979Z,95503.03
2022-12-03T03:38:26.895Z,95499.44
2022-12-03T03:41:30.275Z,95497.06
2022-12-03T03:44:32.688Z,95502.09
2022-12-03T03:47:34.463Z,95511.94
2022-12-03T03:50:36.285Z,95509.59
2022-12-03T03:53:38.882Z,95526.16
2022-12-03T03:56:41.912Z,95522.56
2022-12-03T03:59:43.647Z,95520.56
2022-12-03T04:02:45.488Z,95517.41
2022-12-03T04:05:47.489Z,95516.31
2022-12-03T04:08:49.371Z,95522.44
2022-12-03T04:11:52.419Z,95528.53
2022-12-03T04:14:54.149Z,95517.09
2022-12-03T04:17:55.979Z,95516.31
2022-12-03T04:20:57.604Z,95519.59
2022-12-03T04:23:59.273Z,95510.06
2022-12-03T04:27:02.295Z,95509.16
2022-12-03T04:30:04.216Z,95513.81
2022-12-03T04:33:05.832Z,95521.16
2022-12-03T04:36:07.623Z,95518.81
2022-12-03T04:39:09.262Z,95519.44
2022-12-03T04:42:12.287Z,95521.16
2022-12-03T04:45:13.994Z,95516.00
2022-12-03T04:48:15.624Z,95509.28
2022-12-03T04:51:17.262Z,95515.19
2022-12-03T04:54:19.017Z,95522.44
2022-12-03T04:57:22.255Z,95518.50
2022-12-03T05:00:24.173Z,95521.31
2022-12-03T05:03:25.798Z,95517.25
2022-12-03T05:06:27.466Z,95518.97
2022-12-03T05:09:29.080Z,95518.50
2022-12-03T05:12:32.179Z,95523.19
2022-12-03T05:15:33.787Z,95515.69
2022-12-03T05:18:35.466Z,95516.00
2022-12-03T05:21:37.112Z,95509.13
2022-12-03T05:24:38.752Z,95511.31
2022-12-03T05:27:41.775Z,95506.59
2022-12-03T05:30:43.555Z,95507.22
2022-12-03T05:33:45.257Z,95513.78
2022-12-03T05:36:46.981Z,95515.84
2022-12-03T05:39:48.663Z,95523.19
2022-12-03T05:42:51.770Z,95513.66
2022-12-03T05:45:53.442Z,95507.72
2022-12-03T05:48:55.163Z,95504.31
2022-12-03T05:51:58.652Z,95495.97
2022-12-03T05:55:00.783Z,95497.09
2022-12-03T05:58:03.860Z,95496.63
2022-12-03T06:01:05.690Z,95504.41
2022-12-03T06:04:07.429Z,95503.94
2022-12-03T06:07:13.773Z,95496.94
2022-12-03T06:10:16.964Z,95507.88
2022-12-03T06:13:20.012Z,95501.66
2022-12-03T06:16:22.101Z,95488.66
2022-12-03T06:19:23.809Z,95495.53
2022-12-03T06:22:25.551Z,95499.47
2022-12-03T06:25:27.296Z,95507.13
2022-12-03T06:28:30.376Z,95498.19
2022-12-03T06:31:32.596Z,95487.13
2022-12-03T06:34:34.404Z,95499.28
2022-12-03T06:37:36.091Z,95495.53
2022-12-03T06:40:37.779Z,95486.94
2022-12-03T06:43:40.832Z,95497.28
2022-12-03T06:46:42.594Z,95493.53
2022-12-03T06:49:44.232Z,95487.88
2022-12-03T06:52:45.964Z,95495.53
2022-12-03T06:55:47.716Z,95500.72
2022-12-03T06:58:50.725Z,95500.88
2022-12-03T07:01:52.493Z,95497.28
2022-12-03T07:04:54.674Z,95507.28
2022-12-03T07:07:56.515Z,95501.34
2022-12-03T07:10:58.382Z,95494.47
2022-12-03T07:14:05.375Z,95496.97
2022-12-03T07:17:07.655Z,95511.34
2022-12-03T07:20:09.959Z,95501.19
2022-12-03T07:23:11.693Z,95496.16
2022-12-03T07:26:13.452Z,95498.69
2022-12-03T07:29:16.544Z,95499.44
2022-12-03T07:32:18.311Z,95504.00
2022-12-03T07:35:20.057Z,95499.31
2022-12-03T07:38:21.854Z,95493.84
2022-12-03T07:41:23.716Z,95503.69
2022-12-03T07:44:26.798Z,95498.38
2022-12-03T07:47:28.495Z,95497.91
2022-12-03T07:50:30.218Z,95492.75
2022-12-03T07:53:31.969Z,95488.84
2022-12-03T07:56:33.716Z,95493.06
2022-12-03T07:59:36.729Z,95492.59
2022-12-03T08:02:38.482Z,95490.41
2022-12-03T08:05:40.262Z,95501.34
2022-12-03T08:08:41.922Z,95494.78
2022-12-03T08:11:44.120Z,95493.50
2022-12-03T08:14:47.162Z,95501.81
2022-12-03T08:17:53.570Z,95499.16
2022-12-03T08:20:55.267Z,95505.25
2022-12-03T08:24:12.396Z,95518.97
2022-12-03T08:27:16.505Z,95517.25
2022-12-03T08:30:20.174Z,95518.06
2022-12-03T08:33:25.914Z,95515.09
2022-12-03T08:36:30.010Z,95513.53
2022-12-03T08:39:32.282Z,95506.34
2022-12-03T08:42:34.474Z,95511.50
2022-12-03T08:45:38.078Z,95518.84
2022-12-03T08:48:43.999Z,95515.09
2022-12-03T08:51:48.989Z,95508.53
2022-12-03T08:54:52.126Z,95510.56
2022-12-03T08:57:54.146Z,95508.97
2022-12-03T09:00:58.590Z,95502.09
2022-12-03T09:04:15.304Z,95509.16
2022-12-03T09:07:17.151Z,95515.53
2022-12-03T09:10:18.903Z,95519.13
2022-12-03T09:13:20.679Z,95516.00
2022-12-03T09:16:23.860Z,95510.88
2022-12-03T09:19:26.828Z,95509.28
2022-12-03T09:22:28.531Z,95513.19
2022-12-03T09:25:30.479Z,95506.47
2022-12-03T09:28:32.122Z,95505.06
2022-12-03T09:31:35.301Z,95494.47
2022-12-03T09:34:37.067Z,95500.69
2022-12-03T09:37:38.733Z,95497.09
2022-12-03T09:40:40.658Z,95484.28
2022-12-03T09:44:03.146Z,95486.00
2022-12-03T09:47:05.956Z,95493.19
2022-12-03T09:50:12.718Z,95479.75
2022-12-03T09:53:16.119Z,95483.16
2022-12-03T09:56:18.994Z,95483.63
2022-12-03T09:59:21.817Z,95480.44
2022-12-03T10:02:26.823Z,95473.75
2022-12-03T10:05:28.936Z,95462.97
2022-12-03T10:08:32.272Z,95467.38
2022-12-03T10:11:35.137Z,95461.88
2022-12-03T10:14:36.970Z,95459.56
2022-12-03T10:17:40.225Z,95466.25
2022-12-03T10:20:41.954Z,95458.91
2022-12-03T10:23:43.763Z,95470.94
2022-12-03T10:26:46.143Z,95465.03
2022-12-03T10:29:54.094Z,95462.03
2022-12-03T10:32:58.149Z,95452.28
2022-12-03T10:36:19.848Z,95457.00
2022-12-03T10:39:21.561Z,95449.81
2022-12-03T10:42:23.848Z,95444.84
2022-12-03T10:45:25.621Z,95439.97
2022-12-03T10:48:28.822Z,95440.00
2022-12-03T10:51:30.598Z,95436.25
2022-12-03T10:54:33.594Z,95438.25
2022-12-03T10:57:35.576Z,95436.81
2022-12-03T11:00:37.490Z,95427.13
2022-12-03T11:03:40.718Z,95424.47
2022-12-03T11:06:42.470Z,95425.72
2022-12-03T11:09:45.303Z,95428.38
2022-12-03T11:13:01.831Z,95426.22
2022-12-03T11:16:04.603Z,95419.81
2022-12-03T11:19:14.035Z,95425.44
2022-12-03T11:22:42.559Z,95416.69
2022-12-03T11:25:48.188Z,95414.38
2022-12-03T11:28:53.287Z,95415.00
2022-12-03T11:31:55.035Z,95415.25
2022-12-03T11:34:58.235Z,95415.25
2022-12-03T11:38:23.167Z,95410.44
2022-12-03T11:41:26.270Z,95413.44
2022-12-03T11:44:29.541Z,95405.91
2022-12-03T11:47:32.308Z,95416.69
2022-12-03T11:50:40.229Z,95417.16
2022-12-03T11:53:43.407Z,95400.66
2022-12-03T11:56:45.544Z,95411.25
2022-12-03T11:59:56.998Z,95398.28
2022-12-03T12:02:58.917Z,95391.41
2022-12-03T12:06:03.611Z,95374.50
2022-12-03T12:09:05.281Z,95375.59
2022-12-03T12:12:17.995Z,95370.28
2022-12-03T12:15:49.587Z,95377.84
2022-12-03T12:18:55.121Z,95363.47
2022-12-03T12:25:50.848Z,95369.19
2022-12-03T12:28:55.628Z,95368.56
2022-12-03T12:31:59.527Z,95370.22
2022-12-03T12:35:03.106Z,95360.53
2022-12-03T12:38:12.806Z,95357.88
2022-12-03T12:41:16.027Z,95357.59
2022-12-03T12:44:17.833Z,95358.69
2022-12-03T12:47:19.543Z,95357.72
2022-12-03T12:50:21.248Z,95348.81
2022-12-03T12:53:23.847Z,95356.31
2022-12-03T12:56:28.080Z,95344.56
2022-12-03T12:59:29.814Z,95343.47
2022-12-03T13:02:42.012Z,95341.44
2022-12-03T13:05:46.962Z,95340.84
2022-12-03T13:08:49.351Z,95339.34
2022-12-03T13:11:53.820Z,95332.56
2022-12-03T13:15:00.196Z,95323.34
2022-12-03T13:18:10.619Z,95318.63
2022-12-03T13:21:19.885Z,95322.56
2022-12-03T13:24:28.985Z,95318.97
2022-12-03T13:27:32.123Z,95310.09
2022-12-03T13:30:33.923Z,95316.75
2022-12-03T13:33:35.688Z,95316.28
2022-12-03T13:36:41.337Z,95312.53
2022-12-03T13:39:46.485Z,95305.66
2022-12-03T13:42:49.682Z,95295.47
2022-12-03T13:45:52.667Z,95301.78
2022-12-03T13:48:57.432Z,95309.78
2022-12-03T13:52:02.154Z,95306.66
2022-12-03T13:55:04.176Z,95308.94
2022-12-03T13:58:07.313Z,95305.50
2022-12-03T14:01:09.147Z,95306.63
2022-12-03T14:04:11.611Z,95303.13
2022-12-03T14:07:13.297Z,95308.34
2022-12-03T14:10:15.275Z,95298.16
2022-12-03T14:13:18.423Z,95298.97
2022-12-03T14:16:20.243Z,95296.97
2022-12-03T14:19:21.986Z,95299.13
2022-12-03T14:22:23.669Z,95298.44
2022-12-03T14:25:25.410Z,95298.31
2022-12-03T14:28:28.426Z,95299.25
2022-12-03T14:31:30.238Z,95301.28
2022-12-03T14:34:32.103Z,95309.78
2022-12-03T14:37:33.809Z,95303.75
2022-12-03T14:40:35.533Z,95295.63
2022-12-03T14:43:38.593Z,95291.59
2022-12-03T14:46:40.285Z,95274.97
2022-12-03T14:49:42.293Z,95294.56
2022-12-03T14:52:44.042Z,95303.19
2022-12-03T14:55:45.795Z,95305.66
2022-12-03T14:58:48.950Z,95305.84
2022-12-03T15:01:50.722Z,95305.97
2022-12-03T15:04:52.981Z,95291.84
2022-12-03T15:07:54.834Z,95295.94
2022-12-03T15:10:56.706Z,95294.06
2022-12-03T15:14:00.104Z,95290.09
2022-12-03T15:17:02.056Z,95301.25
2022-12-03T15:20:04.178Z,95297.22
2022-12-03T15:23:08.839Z,95292.50
2022-12-03T15:26:14.547Z,95293.69
2022-12-03T15:29:17.750Z,95296.91
2022-12-03T15:32:20.017Z,95298.44
2022-12-03T15:35:21.916Z,95297.34
2022-12-03T15:38:23.660Z,95299.84
2022-12-03T15:41:25.850Z,95295.72
2022-12-03T15:44:29.006Z,95295.88
2022-12-03T15:47:31.045Z,95290.31
2022-12-03T15:50:38.449Z,95288.09
2022-12-03T15:53:42.191Z,95288.84
2022-12-03T15:56:44.022Z,95277.72
2022-12-03T15:59:47.196Z,95267.72
2022-12-03T16:02:52.498Z,95286.94
2022-12-03T16:05:55.174Z,95279.41
2022-12-03T16:08:56.951Z,95275.59
2022-12-03T16:11:58.728Z,95274.88
2022-12-03T16:15:01.977Z,95278.00
2022-12-03T16:18:04.373Z,95276.38
2022-12-03T16:21:07.674Z,95263.59
2022-12-03T16:24:10.167Z,95262.50
2022-12-03T16:27:12.326Z,95260.75
2022-12-03T16:30:15.786Z,95266.25
2022-12-03T16:33:22.544Z,95258.41
2022-12-03T16:36:27.907Z,95271.06
2022-12-03T16:39:29.598Z,95261.31
2022-12-03T16:42:32.179Z,95259.78
2022-12-03T16:45:35.469Z,95265.53
2022-12-03T16:48:37.226Z,95270.56
2022-12-03T16:51:39.419Z,95262.56
2022-12-03T16:54:41.412Z,95251.81
2022-12-03T16:57:43.504Z,95248.31
2022-12-03T17:00:46.656Z,95247.13
2022-12-03T17:03:48.798Z,95241.81
2022-12-03T17:06:50.630Z,95243.50
2022-12-03T17:09:52.719Z,95246.63
2022-12-03T17:13:09.349Z,95244.59
2022-12-03T17:16:12.671Z,95246.91
2022-12-03T17:19:14.946Z,95248.34
2022-12-03T17:22:16.803Z,95248.56
2022-12-03T17:25:18.837Z,95234.22
2022-12-03T17:28:20.888Z,95242.19
2022-12-03T17:31:25.160Z,95241.88
2022-12-03T17:34:27.252Z,95235.59
2022-12-03T17:37:29.014Z,95230.44
2022-12-03T17:40:30.766Z,95232.22
2022-12-03T17:43:32.542Z,95239.13
2022-12-03T17:46:36.068Z,95234.66
2022-12-03T17:49:37.811Z,95234.66
2022-12-03T17:52:39.896Z,95232.78
2022-12-03T17:55:44.936Z,95231.41
2022-12-03T17:58:47.796Z,95231.66
2022-12-03T18:01:51.377Z,95235.19
2022-12-03T18:04:53.391Z,95240.75
2022-12-03T18:07:55.155Z,95230.56
2022-12-03T18:10:56.854Z,95233.75
2022-12-03T18:13:59.088Z,95228.25
2022-12-03T18:17:02.292Z,95223.50
2022-12-03T18:20:05.030Z,95225.53
2022-12-03T18:23:06.706Z,95223.25
2022-12-03T18:26:11.070Z,95230.06
2022-12-03T18:29:12.874Z,95215.19
2022-12-03T18:32:28.353Z,95219.28
2022-12-03T18:35:31.950Z,95227.38
2022-12-03T18:38:34.533Z,95219.00
2022-12-03T18:41:36.531Z,95218.31
2022-12-03T18:44:38.493Z,95215.97
2022-12-03T18:47:42.713Z,95222.28
2022-12-03T18:50:46.098Z,95221.44
2022-12-03T18:53:48.620Z,95213.44
2022-12-03T18:56:50.597Z,95215.88
2022-12-03T18:59:53.059Z,95223.22
2022-12-03T19:03:05.357Z,95224.41
2022-12-03T19:06:16.944Z,95220.75
2022-12-03T19:09:20.980Z,95218.66
2022-12-03T19:12:24.022Z,95214.16
2022-12-03T19:15:26.427Z,95218.25
2022-12-03T19:18:37.181Z,95217.66
2022-12-03T19:21:39.525Z,95209.28
2022-12-03T19:24:42.031Z,95208.59
2022-12-03T19:27:44.419Z,95217.97
2022-12-03T19:30:46.579Z,95219.88
2022-12-03T19:33:51.668Z,95229.06
2022-12-03T19:36:54.728Z,95218.31
2022-12-03T19:39:57.708Z,95222.19
2022-12-03T19:43:00.173Z,95224.53
2022-12-03T19:46:03.417Z,95205.69
2022-12-03T19:49:07.605Z,95206.34
2022-12-03T19:52:09.490Z,95195.28
2022-12-03T19:55:11.886Z,95203.31
2022-12-03T19:58:14.774Z,95213.91
2022-12-03T20:01:17.991Z,95220.91
2022-12-03T20:04:22.062Z,95228.88
2022-12-03T20:07:24.488Z,95229.19
2022-12-03T20:10:26.562Z,95234.63
2022-12-03T20:13:33.512Z,95233.88
2022-12-03T20:16:39.559Z,95213.56
2022-12-03T20:19:43.510Z,95211.94
2022-12-03T20:22:47.241Z,95209.13
2022-12-03T20:25:49.851Z,95192.97
2022-12-03T20:28:54.277Z,95193.16
2022-12-03T20:31:57.627Z,95193.16
2022-12-03T20:35:02.199Z,95179.56
2022-12-03T20:38:04.766Z,95190.44
2022-12-03T20:41:08.746Z,95190.97
2022-12-03T20:44:11.309Z,95195.81
2022-12-03T20:47:13.857Z,95185.31
2022-12-03T20:50:17.949Z,95189.97
2022-12-03T20:53:25.401Z,95177.88
2022-12-03T20:56:29.052Z,95191.06
2022-12-03T20:59:31.534Z,95182.84
2022-12-03T21:02:33.954Z,95169.66
2022-12-03T21:05:37.838Z,95169.47
2022-12-03T21:08:42.375Z,95173.34
2022-12-03T21:11:44.840Z,95184.56
2022-12-03T21:14:46.687Z,95180.69
2022-12-03T21:17:48.800Z,95170.88
2022-12-03T21:20:52.604Z,95173.47
2022-12-03T21:23:55.680Z,95172.25
2022-12-03T21:26:58.095Z,95167.81
2022-12-03T21:30:00.763Z,95150.53
2022-12-03T21:33:02.854Z,95154.97
2022-12-03T21:36:10.137Z,95171.28
2022-12-03T21:39:12.333Z,95162.50
2022-12-03T21:42:25.871Z,95156.19
2022-12-03T21:45:39.761Z,95152.41
2022-12-03T21:48:42.006Z,95155.63
2022-12-03T21:55:21.495Z,95148.66
2022-12-03T21:58:23.702Z,95150.13
2022-12-03T22:01:26.553Z,95151.34
2022-12-03T22:04:28.530Z,95152.78
2022-12-03T22:07:32.234Z,95156.22
2022-12-03T22:10:36.018Z,95158.41
2022-12-03T22:13:38.302Z,95158.66
2022-12-03T22:16:40.074Z,95150.22
2022-12-03T22:19:41.826Z,95151.13
2022-12-03T22:22:43.593Z,95157.44
2022-12-03T22:25:46.700Z,95148.75
2022-12-03T22:28:49.275Z,95148.34
2022-12-03T22:31:51.326Z,95142.75
2022-12-03T22:34:53.063Z,95135.22
2022-12-03T22:37:54.888Z,95130.66
2022-12-03T22:40:57.916Z,95126.69
2022-12-03T22:43:59.837Z,95141.44
2022-12-03T22:47:01.539Z,95142.03
2022-12-03T22:50:03.415Z,95133.25
2022-12-03T22:53:05.185Z,95126.81
2022-12-03T22:56:08.340Z,95123.25
2022-12-03T22:59:10.046Z,95115.81
2022-12-03T23:02:11.772Z,95115.25
2022-12-03T23:05:13.646Z,95104.38
2022-12-03T23:08:16.490Z,95102.19
2022-12-03T23:11:20.163Z,95101.06
2022-12-03T23:14:21.888Z,95096.50
2022-12-03T23:17:23.658Z,95097.72
2022-12-03T23:20:25.541Z,95088.41
2022-12-03T23:23:28.230Z,95083.44
2022-12-03T23:26:33.570Z,95077.22
2022-12-03T23:29:35.389Z,95077.66
2022-12-03T23:32:37.175Z,95091.28
2022-12-03T23:35:39.531Z,95086.31
2022-12-03T23:38:41.855Z,95081.66
2022-12-03T23:41:44.987Z,95067.25
2022-12-03T23:44:46.937Z,95060.94
2022-12-03T23:47:51.285Z,95059.38
2022-12-03T23:50:55.240Z,95053.06
2022-12-03T23:53:57.016Z,95076.88
2022-12-03T23:57:00.098Z,95066.56
